Time;durP1;ratioP1;P1;durP2;ratioP2;P2;SDS_P1;SDS_P2;PMS_P1;PMS_P2;Temp;Humidity;BMP_temperature;BMP_pressure;BME280_temperature;BME280_humidity;BME280_pressure;Samples;Min_cycle;Max_cycle;Signal;HPM_P1;HPM_P2
2022/07/29 00:01:53;;;;;;;6.43;5.10;;;30.40;51.50;;;;;;5054629;28;20032;-76
2022/07/29 00:04:19;;;;;;;8.20;4.93;;;30.10;52.10;;;;;;5066115;28;20063;-76
2022/07/29 00:06:45;;;;;;;5.90;4.93;;;29.90;52.30;;;;;;5073780;28;20378;-77
2022/07/29 00:09:11;;;;;;;6.88;5.10;;;29.80;52.40;;;;;;5059796;28;20021;-76
2022/07/29 00:11:36;;;;;;;8.65;5.32;;;30.00;52.10;;;;;;5069676;28;20024;-77
2022/07/29 00:14:02;;;;;;;8.32;5.18;;;30.10;52.10;;;;;;5072411;28;20068;-76
2022/07/29 00:16:28;;;;;;;7.57;4.80;;;30.20;52.20;;;;;;5065944;28;20440;-77
2022/07/29 00:18:53;;;;;;;7.63;5.20;;;30.20;51.80;;;;;;5036991;28;20036;-76
2022/07/29 00:21:19;;;;;;;6.30;5.07;;;30.30;51.80;;;;;;5054891;28;20033;-77
2022/07/29 00:23:44;;;;;;;6.13;4.88;;;30.40;51.90;;;;;;5054159;28;20472;-76
2022/07/29 00:26:10;;;;;;;9.02;5.45;;;30.40;51.60;;;;;;5067318;28;20029;-77
2022/07/29 00:28:36;;;;;;;6.68;5.10;;;30.40;51.60;;;;;;5064805;28;20023;-77
2022/07/29 00:31:01;;;;;;;9.02;5.47;;;30.30;51.60;;;;;;5055313;28;20395;-76
2022/07/29 00:33:28;;;;;;;7.72;5.32;;;30.20;51.80;;;;;;5054980;28;20495;-76
2022/07/29 00:35:54;;;;;;;6.30;4.70;;;30.10;52.00;;;;;;5053868;28;20110;-74
2022/07/29 00:38:20;;;;;;;7.38;4.95;;;29.80;52.20;;;;;;5069553;28;20427;-76
2022/07/29 00:40:46;;;;;;;6.70;5.40;;;29.70;52.50;;;;;;5070805;28;20056;-76
2022/07/29 00:43:13;;;;;;;7.07;5.25;;;29.60;52.70;;;;;;5072857;28;20043;-76
2022/07/29 00:45:39;;;;;;;6.70;5.55;;;29.70;52.60;;;;;;5061457;28;20383;-77
2022/07/29 00:48:06;;;;;;;6.60;5.20;;;29.80;52.60;;;;;;5060692;28;20021;-76
2022/07/29 00:50:32;;;;;;;6.55;4.88;;;29.80;52.40;;;;;;5054507;28;20387;-77
2022/07/29 00:52:58;;;;;;;7.60;5.63;;;29.70;52.70;;;;;;5053326;28;20408;-76
2022/07/29 00:55:24;;;;;;;6.38;4.85;;;29.50;52.80;;;;;;5057808;28;20568;-78
2022/07/29 00:57:50;;;;;;;8.00;5.75;;;29.60;53.00;;;;;;5070615;28;20030;-75
2022/07/29 01:00:25;;;;;;;7.03;5.15;;;29.60;52.50;;;;;;5070875;28;20056;-76
2022/07/29 01:02:51;;;;;;;6.18;5.32;;;29.70;52.50;;;;;;5059313;28;20017;-76
2022/07/29 01:05:19;;;;;;;5.93;5.13;;;29.70;52.40;;;;;;5053815;28;20044;-76
2022/07/29 01:07:47;;;;;;;6.53;5.35;;;29.80;52.50;;;;;;5053575;28;20033;-75
2022/07/29 01:10:15;;;;;;;7.15;5.13;;;29.80;52.20;;;;;;5053734;28;20060;-75
2022/07/29 01:12:44;;;;;;;6.60;5.43;;;29.70;52.10;;;;;;5047215;28;20364;-76
2022/07/29 01:15:10;;;;;;;6.78;5.60;;;29.70;52.40;;;;;;5059601;28;20031;-76
2022/07/29 01:17:44;;;;;;;6.28;5.28;;;29.60;52.40;;;;;;5065970;28;20464;-78
2022/07/29 01:20:35;;;;;;;8.35;5.20;;;29.40;52.80;;;;;;5054488;28;20109;-77
2022/07/29 01:23:45;;;;;;;7.82;5.53;;;28.90;53.20;;;;;;5053503;28;20031;-75
2022/07/29 01:26:13;;;;;;;;;;;28.60;54.10;;;;;;5022238;28;20428;-76
2022/07/29 01:28:57;;;;;;;8.57;5.18;;;28.60;54.20;;;;;;5019720;28;20043;-76
2022/07/29 01:31:47;;;;;;;6.85;5.40;;;28.60;54.40;;;;;;5014309;28;20495;-77
2022/07/29 01:34:22;;;;;;;8.95;5.72;;;28.70;54.00;;;;;;5028149;28;20389;-77
2022/07/29 01:36:54;;;;;;;6.22;5.40;;;28.90;53.80;;;;;;5022544;28;20143;-76
2022/07/29 01:39:34;;;;;;;6.60;5.38;;;29.20;53.40;;;;;;5025443;28;20116;-76
2022/07/29 01:42:09;;;;;;;6.18;5.30;;;29.30;53.00;;;;;;5019967;28;20036;-77
2022/07/29 01:44:46;;;;;;;5.95;5.30;;;29.40;53.10;;;;;;5026597;28;20480;-77
2022/07/29 01:47:20;;;;;;;8.48;5.68;;;29.40;52.90;;;;;;5015145;28;20135;-77
2022/07/29 01:49:50;;;;;;;6.70;5.40;;;29.30;53.20;;;;;;5025479;28;20534;-76
2022/07/29 01:52:21;;;;;;;;;;;29.20;53.20;;;;;;5017860;28;20034;-77
2022/07/29 01:54:55;;;;;;;8.18;5.85;;;29.20;53.20;;;;;;5028616;28;20000;-77
2022/07/29 01:57:27;;;;;;;7.85;5.60;;;29.30;52.90;;;;;;5030302;28;20409;-76
2022/07/29 01:59:54;;;;;;;6.50;5.55;;;29.30;53.20;;;;;;5013941;28;20503;-76
2022/07/29 02:02:21;;;;;;;5.97;5.25;;;29.30;53.00;;;;;;5013364;28;20511;-74
2022/07/29 02:04:48;;;;;;;6.95;5.20;;;29.10;53.10;;;;;;5053250;28;20361;-77
2022/07/29 02:07:19;;;;;;;6.75;5.50;;;28.70;53.60;;;;;;5059268;28;20031;-77
2022/07/29 02:09:47;;;;;;;6.47;4.95;;;28.40;53.70;;;;;;5062279;28;20108;-77
2022/07/29 02:12:16;;;;;;;6.90;5.53;;;28.40;53.90;;;;;;5035587;28;20479;-76
2022/07/29 02:14:47;;;;;;;8.40;5.90;;;28.40;54.30;;;;;;5052994;28;20025;-77
2022/07/29 02:17:16;;;;;;;7.35;5.82;;;28.60;54.10;;;;;;5051474;28;20373;-77
2022/07/29 02:19:44;;;;;;;7.15;6.10;;;28.70;54.10;;;;;;5066704;28;20086;-77
2022/07/29 02:22:12;;;;;;;9.15;6.05;;;28.80;53.90;;;;;;5052638;28;20021;-77
2022/07/29 02:24:40;;;;;;;7.13;5.65;;;28.90;53.80;;;;;;5054965;28;20028;-77
2022/07/29 02:27:07;;;;;;;7.18;5.80;;;28.80;54.00;;;;;;5056664;28;20388;-77
2022/07/29 02:29:35;;;;;;;6.88;6.03;;;28.80;54.00;;;;;;5056555;28;20036;-77
2022/07/29 02:32:03;;;;;;;6.95;6.20;;;28.80;53.90;;;;;;5071556;28;20033;-77
2022/07/29 02:34:29;;;;;;;6.60;5.93;;;28.80;54.10;;;;;;5061074;28;20029;-76
2022/07/29 02:36:55;;;;;;;6.88;5.93;;;28.80;54.10;;;;;;5058833;28;20045;-76
2022/07/29 02:39:24;;;;;;;10.40;5.50;;;28.60;54.20;;;;;;5059543;28;20070;-76
2022/07/29 02:41:57;;;;;;;7.22;6.22;;;28.60;54.30;;;;;;5073391;28;20432;-77
2022/07/29 02:44:25;;;;;;;6.97;6.10;;;28.70;54.00;;;;;;5071726;28;20023;-76
2022/07/29 02:47:02;;;;;;;9.15;6.43;;;28.80;53.80;;;;;;5050567;28;20055;-76
2022/07/29 02:49:37;;;;;;;6.53;5.70;;;28.80;53.80;;;;;;5068377;28;20378;-77
2022/07/29 02:52:12;;;;;;;6.78;5.60;;;28.70;53.40;;;;;;5055556;28;20037;-77
2022/07/29 02:54:46;;;;;;;8.52;6.47;;;28.10;54.80;;;;;;5071509;28;20459;-79
2022/07/29 02:57:21;;;;;;;6.88;6.18;;;28.10;54.50;;;;;;5055925;28;20467;-76
2022/07/29 02:59:51;;;;;;;7.40;6.35;;;28.20;54.50;;;;;;5062578;28;20383;-77
2022/07/29 03:02:18;;;;;;;7.22;6.28;;;28.30;54.20;;;;;;5061923;28;20098;-78
2022/07/29 03:04:46;;;;;;;8.40;6.70;;;28.40;54.10;;;;;;5055408;28;20029;-76
2022/07/29 03:07:14;;;;;;;7.68;6.00;;;28.40;54.20;;;;;;5055994;28;20056;-77
2022/07/29 03:09:42;;;;;;;7.05;6.35;;;28.00;54.20;;;;;;5061196;28;20016;-78
2022/07/29 03:12:09;;;;;;;8.63;6.50;;;27.90;54.80;;;;;;5074162;28;20024;-79
2022/07/29 03:14:35;;;;;;;7.00;6.07;;;28.10;54.70;;;;;;5075674;28;20040;-75
2022/07/29 03:17:02;;;;;;;7.30;5.90;;;28.30;54.30;;;;;;5074418;28;20491;-76
2022/07/29 03:19:28;;;;;;;7.55;6.40;;;28.30;54.30;;;;;;5063769;28;20021;-78
2022/07/29 03:21:59;;;;;;;7.45;6.43;;;28.30;54.20;;;;;;5064693;28;20116;-79
2022/07/29 03:24:26;;;;;;;6.68;5.95;;;28.30;54.10;;;;;;5085999;28;20035;-77
2022/07/29 03:26:52;;;;;;;7.68;6.53;;;28.20;54.30;;;;;;5095870;28;20032;-79
2022/07/29 03:29:17;;;;;;;7.15;6.35;;;28.20;54.40;;;;;;5096076;28;20028;-78
2022/07/29 03:31:43;;;;;;;7.43;6.20;;;28.20;54.30;;;;;;5077711;28;20050;-75
2022/07/29 03:34:09;;;;;;;7.57;6.43;;;28.30;54.30;;;;;;5067404;28;20112;-76
2022/07/29 03:36:34;;;;;;;10.80;6.63;;;28.30;54.70;;;;;;5054755;28;20049;-75
2022/07/29 03:39:01;;;;;;;9.38;6.60;;;28.40;54.20;;;;;;5067315;28;20024;-76
2022/07/29 03:41:29;;;;;;;7.63;6.45;;;28.40;54.00;;;;;;5074945;28;20382;-76
2022/07/29 03:43:56;;;;;;;8.95;5.85;;;28.50;54.20;;;;;;5069503;28;20075;-77
2022/07/29 03:46:23;;;;;;;8.27;6.32;;;28.30;54.60;;;;;;5062648;28;20530;-78
2022/07/29 03:48:52;;;;;;;7.60;5.82;;;28.20;55.00;;;;;;5038630;28;20484;-75
2022/07/29 03:51:18;;;;;;;7.78;6.00;;;28.30;54.70;;;;;;5054935;28;20033;-78
2022/07/29 03:53:44;;;;;;;7.55;6.32;;;28.10;54.40;;;;;;5055706;28;20032;-77
2022/07/29 03:56:15;;;;;;;7.93;6.20;;;28.10;54.70;;;;;;5054919;28;20044;-78
2022/07/29 03:58:41;;;;;;;12.05;6.70;;;28.40;54.70;;;;;;5054814;28;20400;-78
2022/07/29 04:01:07;;;;;;;9.80;6.25;;;28.60;54.20;;;;;;5061788;28;20033;-74
2022/07/29 04:03:34;;;;;;;11.20;6.40;;;28.80;54.10;;;;;;5073053;28;20020;-75
2022/07/29 04:06:08;;;;;;;7.65;6.05;;;28.70;54.20;;;;;;5075157;28;20082;-78
2022/07/29 04:08:34;;;;;;;7.55;5.47;;;28.80;54.20;;;;;;5064881;28;20079;-77
2022/07/29 04:11:01;;;;;;;6.53;5.47;;;28.90;53.90;;;;;;5054329;28;20060;-76
2022/07/29 04:13:26;;;;;;;7.38;5.55;;;29.00;54.10;;;;;;5061471;28;20044;-78
2022/07/29 04:15:52;;;;;;;7.38;6.22;;;29.10;54.10;;;;;;5074818;28;20106;-78
2022/07/29 04:18:18;;;;;;;7.57;5.78;;;29.00;53.90;;;;;;5070051;28;20024;-74
2022/07/29 04:20:43;;;;;;;7.07;5.55;;;29.20;54.00;;;;;;5065813;28;20213;-77
2022/07/29 04:23:09;;;;;;;6.97;5.80;;;29.10;54.00;;;;;;5052280;28;20028;-76
2022/07/29 04:25:42;;;;;;;6.60;5.82;;;28.80;54.40;;;;;;5073481;28;20456;-78
2022/07/29 04:28:08;;;;;;;7.93;5.57;;;28.90;54.30;;;;;;5068534;28;20024;-77
2022/07/29 04:30:35;;;;;;;6.35;5.15;;;29.10;54.00;;;;;;5054287;28;20033;-76
2022/07/29 04:33:02;;;;;;;6.50;5.20;;;28.90;53.30;;;;;;5053251;28;20505;-77
2022/07/29 04:35:29;;;;;;;7.07;4.88;;;28.40;53.30;;;;;;5054325;28;20048;-78
2022/07/29 04:37:54;;;;;;;6.25;5.18;;;27.70;54.30;;;;;;5037575;28;20024;-76
2022/07/29 04:40:20;;;;;;;10.63;5.55;;;27.30;55.00;;;;;;5053389;28;20021;-78
2022/07/29 04:42:46;;;;;;;6.57;5.50;;;27.40;55.50;;;;;;5068310;28;20932;-80
2022/07/29 04:45:12;;;;;;;6.13;5.15;;;28.10;54.90;;;;;;5054566;28;20029;-79
2022/07/29 04:47:38;;;;;;;6.93;5.18;;;28.50;53.50;;;;;;5066089;28;20033;-77
2022/07/29 04:50:05;;;;;;;6.25;5.05;;;28.40;53.50;;;;;;5061509;28;20032;-77
2022/07/29 04:52:30;;;;;;;6.57;5.00;;;28.30;54.10;;;;;;5054139;28;20052;-78
2022/07/29 04:54:56;;;;;;;6.28;5.30;;;28.60;53.80;;;;;;5060271;28;20436;-77
2022/07/29 04:57:22;;;;;;;6.95;5.25;;;28.70;53.10;;;;;;5053819;28;20036;-78
2022/07/29 04:59:48;;;;;;;6.38;4.88;;;28.70;53.40;;;;;;5071227;28;20021;-77
2022/07/29 05:02:14;;;;;;;7.10;5.15;;;28.90;53.60;;;;;;5056473;28;20066;-79
2022/07/29 05:04:39;;;;;;;12.43;5.60;;;29.10;53.60;;;;;;5066141;28;20052;-79
2022/07/29 05:07:05;;;;;;;8.85;5.18;;;29.50;53.20;;;;;;5057170;28;20032;-78
2022/07/29 05:09:32;;;;;;;11.05;5.40;;;29.90;52.90;;;;;;5068385;28;20021;-79
2022/07/29 05:11:58;;;;;;;6.47;4.80;;;30.20;52.40;;;;;;5035641;28;20132;-79
2022/07/29 05:14:24;;;;;;;6.15;5.32;;;30.30;52.50;;;;;;5035494;28;20459;-77
2022/07/29 05:16:50;;;;;;;8.55;5.20;;;30.40;52.30;;;;;;5053579;28;20039;-79
2022/07/29 05:19:17;;;;;;;7.53;5.18;;;30.50;52.30;;;;;;5042598;28;20020;-77
2022/07/29 05:21:44;;;;;;;10.48;5.28;;;30.70;52.30;;;;;;5052191;28;20025;-78
2022/07/29 05:24:10;;;;;;;8.88;5.35;;;30.50;51.00;;;;;;5056374;28;20040;-79
2022/07/29 05:26:35;;;;;;;5.53;4.80;;;30.10;51.80;;;;;;5071273;28;20032;-75
2022/07/29 05:29:01;;;;;;;7.00;4.90;;;30.20;52.10;;;;;;5064232;28;20467;-77
2022/07/29 05:31:27;;;;;;;5.95;5.07;;;30.40;52.30;;;;;;5093085;28;20336;-78
2022/07/29 05:33:53;;;;;;;7.43;5.00;;;30.60;52.40;;;;;;5085447;28;20024;-78
2022/07/29 05:36:18;;;;;;;6.70;5.18;;;30.70;51.60;;;;;;5093695;28;20040;-79
2022/07/29 05:38:44;;;;;;;7.43;4.90;;;30.90;52.40;;;;;;5068752;28;20025;-77
2022/07/29 05:41:10;;;;;;;6.78;4.75;;;31.10;52.20;;;;;;5084319;28;20055;-76
2022/07/29 05:43:35;;;;;;;6.50;5.50;;;31.30;51.90;;;;;;5093411;28;20157;-76
2022/07/29 05:46:01;;;;;;;6.72;4.75;;;31.50;50.50;;;;;;5071420;28;20020;-78
2022/07/29 05:48:27;;;;;;;5.90;4.68;;;30.80;51.20;;;;;;5071900;28;20021;-77
2022/07/29 05:50:53;;;;;;;8.85;5.05;;;30.60;51.30;;;;;;5072438;28;20031;-80
2022/07/29 05:53:18;;;;;;;5.80;5.00;;;30.80;51.10;;;;;;5073213;28;20020;-79
2022/07/29 05:55:44;;;;;;;9.93;5.25;;;31.20;51.10;;;;;;5072997;28;20111;-84
2022/07/29 05:58:10;;;;;;;6.15;4.75;;;30.70;50.90;;;;;;5069893;28;20379;-78
2022/07/29 06:00:36;;;;;;;6.75;4.75;;;30.50;51.00;;;;;;5063054;28;20028;-81
2022/07/29 06:03:01;;;;;;;7.30;4.57;;;30.80;50.60;;;;;;5053323;28;20145;-79
2022/07/29 06:05:27;;;;;;;6.82;4.90;;;30.60;50.30;;;;;;5091240;28;20063;-78
2022/07/29 06:07:53;;;;;;;5.57;4.70;;;30.30;51.40;;;;;;5062765;28;20025;-77
2022/07/29 06:10:19;;;;;;;8.02;5.30;;;30.60;50.80;;;;;;5063128;28;20067;-80
2022/07/29 06:12:44;;;;;;;12.82;5.45;;;30.40;51.40;;;;;;5044920;28;20031;-76
2022/07/29 06:15:10;;;;;;;11.15;5.00;;;30.50;50.90;;;;;;5070277;28;20039;-79
2022/07/29 06:17:36;;;;;;;7.00;4.80;;;30.20;51.10;;;;;;5071163;28;20551;-81
2022/07/29 06:20:03;;;;;;;5.65;4.82;;;30.60;51.10;;;;;;5075102;28;20108;-83
2022/07/29 06:22:29;;;;;;;5.85;5.05;;;31.10;50.30;;;;;;5088844;28;20032;-80
2022/07/29 06:24:55;;;;;;;6.18;4.60;;;31.50;49.70;;;;;;4710800;28;10000302;-76
2022/07/29 06:27:21;;;;;;;5.57;4.40;;;31.80;49.60;;;;;;5049111;28;20025;-76
2022/07/29 06:29:46;;;;;;;6.15;4.70;;;31.90;49.70;;;;;;5068784;28;20024;-80
2022/07/29 06:32:12;;;;;;;6.00;4.80;;;32.10;49.70;;;;;;5051399;28;20098;-77
2022/07/29 06:34:38;;;;;;;6.63;4.80;;;32.30;49.30;;;;;;5058791;28;20475;-81
2022/07/29 06:37:10;;;;;;;8.02;4.82;;;32.60;49.30;;;;;;5038852;28;20056;-79
2022/07/29 06:39:36;;;;;;;5.85;4.65;;;32.70;49.20;;;;;;5036558;28;20035;-79
2022/07/29 06:42:05;;;;;;;8.43;4.80;;;32.60;49.20;;;;;;5088633;28;20028;-77
2022/07/29 06:44:33;;;;;;;7.35;4.93;;;32.80;49.30;;;;;;5088494;28;20066;-78
2022/07/29 06:46:59;;;;;;;8.02;4.80;;;33.00;49.50;;;;;;5070405;28;20036;-77
2022/07/29 06:49:26;;;;;;;6.78;4.85;;;32.80;49.10;;;;;;5088615;28;20020;-77
2022/07/29 06:51:52;;;;;;;10.00;5.10;;;32.60;49.20;;;;;;5089409;28;20025;-75
2022/07/29 06:54:18;;;;;;;6.60;5.45;;;32.20;49.70;;;;;;5092232;28;20027;-78
2022/07/29 06:56:44;;;;;;;7.68;4.85;;;32.20;48.80;;;;;;5069367;28;20044;-83
2022/07/29 06:59:11;;;;;;;6.80;4.70;;;32.60;48.60;;;;;;4720033;28;10000153;-76
2022/07/29 07:01:39;;;;;;;8.55;5.20;;;33.00;48.40;;;;;;5055895;28;20033;-83
2022/07/29 07:04:05;;;;;;;6.90;4.90;;;32.40;48.30;;;;;;5068934;28;20518;-77
2022/07/29 07:06:31;;;;;;;7.30;4.68;;;32.10;48.50;;;;;;5066987;28;20043;-78
2022/07/29 07:08:57;;;;;;;5.68;4.80;;;32.50;48.70;;;;;;5054568;28;20020;-78
2022/07/29 07:11:22;;;;;;;6.10;4.78;;;32.80;48.50;;;;;;5055468;28;20059;-79
2022/07/29 07:13:48;;;;;;;6.10;4.60;;;33.20;48.70;;;;;;5070209;28;20774;-79
2022/07/29 07:16:14;;;;;;;6.25;4.90;;;33.20;49.10;;;;;;5064824;28;20063;-77
2022/07/29 07:18:40;;;;;;;6.00;5.13;;;33.30;48.60;;;;;;5058010;28;20029;-80
2022/07/29 07:21:06;;;;;;;8.00;4.90;;;33.40;48.20;;;;;;5054593;28;20036;-80
2022/07/29 07:23:34;;;;;;;7.60;5.40;;;33.40;47.20;;;;;;5083551;28;20099;-77
2022/07/29 07:25:59;;;;;;;6.35;5.18;;;33.10;46.90;;;;;;5092670;28;20032;-76
2022/07/29 07:28:25;;;;;;;5.82;4.68;;;32.80;47.00;;;;;;5092572;28;20035;-80
2022/07/29 07:30:51;;;;;;;9.13;5.10;;;32.70;47.80;;;;;;5085159;28;20461;-78
2022/07/29 07:33:17;;;;;;;11.32;5.32;;;32.70;49.00;;;;;;5067900;28;20090;-77
2022/07/29 07:35:44;;;;;;;8.50;5.25;;;32.70;47.80;;;;;;5072095;28;20040;-79
2022/07/29 07:38:09;;;;;;;7.22;5.10;;;32.60;48.50;;;;;;5071898;28;20052;-82
2022/07/29 07:40:35;;;;;;;6.90;4.78;;;32.70;48.10;;;;;;5071460;28;20025;-80
2022/07/29 07:43:01;;;;;;;6.25;5.10;;;32.60;48.30;;;;;;5069794;28;20035;-78
2022/07/29 07:45:27;;;;;;;8.25;5.10;;;32.80;48.70;;;;;;5071770;28;20060;-92
2022/07/29 07:47:53;;;;;;;8.05;5.18;;;33.10;48.20;;;;;;5052964;28;20059;-84
2022/07/29 07:50:19;;;;;;;7.22;5.10;;;33.00;47.80;;;;;;5071953;28;20060;-81
2022/07/29 07:52:54;;;;;;;6.28;4.90;;;32.70;48.10;;;;;;5070773;28;20024;-80
2022/07/29 07:55:20;;;;;;;7.45;5.10;;;32.80;48.10;;;;;;5072278;28;20031;-79
2022/07/29 07:57:47;;;;;;;8.70;5.15;;;32.90;48.30;;;;;;5071316;28;20056;-82
2022/07/29 08:00:14;;;;;;;8.48;5.30;;;33.30;48.60;;;;;;5069006;28;20020;-78
2022/07/29 08:02:40;;;;;;;7.75;4.80;;;33.70;47.70;;;;;;5092237;28;20055;-83
2022/07/29 08:05:07;;;;;;;7.30;4.95;;;33.30;47.40;;;;;;5061333;28;20075;-78
2022/07/29 08:07:33;;;;;;;7.22;4.88;;;33.10;48.10;;;;;;5090011;28;20054;-83
2022/07/29 08:09:59;;;;;;;7.88;5.35;;;33.50;48.80;;;;;;5084192;28;20021;-79
2022/07/29 08:12:25;;;;;;;12.48;5.28;;;34.00;47.20;;;;;;5070704;28;20069;-79
2022/07/29 08:14:51;;;;;;;5.95;4.93;;;34.00;47.50;;;;;;5054108;28;20473;-79
2022/07/29 08:17:16;;;;;;;7.53;5.22;;;34.40;46.90;;;;;;5051934;28;20472;-81
2022/07/29 08:19:42;;;;;;;8.40;5.30;;;34.40;46.80;;;;;;5062803;28;20036;-84
2022/07/29 08:22:08;;;;;;;9.90;5.32;;;34.60;47.60;;;;;;5064909;28;20028;-83
2022/07/29 08:24:42;;;;;;;8.20;4.88;;;34.70;46.30;;;;;;5071456;28;20029;-81
2022/07/29 08:27:09;;;;;;;9.63;5.03;;;33.50;47.30;;;;;;5052530;28;20052;-79
2022/07/29 08:29:35;;;;;;;8.93;5.13;;;33.40;48.00;;;;;;5055764;28;20024;-83
2022/07/29 08:32:01;;;;;;;6.38;4.65;;;33.50;47.90;;;;;;5048561;28;20052;-79
2022/07/29 08:34:28;;;;;;;7.72;5.20;;;33.80;48.20;;;;;;5059511;28;20108;-80
2022/07/29 08:36:55;;;;;;;10.85;5.50;;;33.60;47.00;;;;;;5043810;28;20396;-80
2022/07/29 08:39:21;;;;;;;9.02;5.10;;;33.20;48.00;;;;;;5080021;28;20439;-80
2022/07/29 08:41:47;;;;;;;10.57;4.85;;;33.50;47.40;;;;;;5071604;28;20853;-79
2022/07/29 08:44:15;;;;;;;6.75;4.90;;;33.20;47.40;;;;;;5090148;28;20269;-77
2022/07/29 08:46:41;;;;;;;8.52;5.57;;;33.00;47.70;;;;;;5094028;28;20085;-78
2022/07/29 08:49:07;;;;;;;7.70;5.07;;;33.20;47.90;;;;;;5074629;28;20024;-78
2022/07/29 08:51:35;;;;;;;7.38;5.00;;;33.70;47.70;;;;;;5052930;28;20514;-78
2022/07/29 08:54:01;;;;;;;9.30;5.28;;;34.30;47.10;;;;;;5053945;28;20021;-80
2022/07/29 08:56:31;;;;;;;8.55;4.90;;;35.00;47.20;;;;;;5066517;28;20119;-84
2022/07/29 08:58:58;;;;;;;9.47;4.80;;;35.30;46.70;;;;;;5090655;28;20020;-77
2022/07/29 09:01:29;;;;;;;7.25;4.72;;;35.60;45.90;;;;;;5092591;28;20032;-79
2022/07/29 09:03:56;;;;;;;12.80;5.60;;;35.60;45.90;;;;;;5093576;28;20107;-78
2022/07/29 09:06:27;;;;;;;7.95;5.03;;;35.00;46.00;;;;;;5058733;28;20033;-79
2022/07/29 09:08:54;;;;;;;6.63;5.07;;;35.00;46.40;;;;;;5055830;28;20101;-79
2022/07/29 09:11:21;;;;;;;9.77;4.55;;;34.90;46.20;;;;;;4713659;28;10000450;-81
2022/07/29 09:13:49;;;;;;;7.25;4.93;;;35.00;46.60;;;;;;5051464;28;20074;-77
2022/07/29 09:16:15;;;;;;;13.93;4.70;;;35.30;45.80;;;;;;5068376;28;20550;-77
2022/07/29 09:18:43;;;;;;;11.18;4.45;;;35.20;45.90;;;;;;5054370;28;20033;-78
2022/07/29 09:24:04;;;;;;;11.55;5.03;;;35.80;46.50;;;;;;5051381;28;20035;-83
2022/07/29 09:26:37;;;;;;;6.20;4.47;;;36.10;45.40;;;;;;5051616;28;20040;-77
2022/07/29 09:29:17;;;;;;;6.55;4.45;;;36.30;44.20;;;;;;5050908;28;20025;-81
2022/07/29 09:31:47;;;;;;;;;;;36.30;44.50;;;;;;5033963;28;20480;-82
2022/07/29 09:34:15;;;;;;;10.82;4.70;;;36.30;45.20;;;;;;5050963;28;19909;-77
2022/07/29 09:36:45;;;;;;;5.30;4.40;;;36.60;45.40;;;;;;5050423;28;20566;-83
2022/07/29 09:39:13;;;;;;;6.50;4.32;;;36.90;44.40;;;;;;5032295;28;20033;-80
2022/07/29 09:41:48;;;;;;;7.28;4.65;;;36.90;44.50;;;;;;5032182;28;20410;-80
2022/07/29 09:44:14;;;;;;;7.72;3.97;;;36.70;44.80;;;;;;5050872;28;20391;-79
2022/07/29 09:46:52;;;;;;;9.55;4.65;;;36.60;44.30;;;;;;5047796;28;20468;-77
2022/07/29 09:49:18;;;;;;;5.35;4.22;;;36.40;44.90;;;;;;5070436;28;20020;-80
2022/07/29 09:51:43;;;;;;;16.38;4.45;;;36.50;44.40;;;;;;5091276;28;20039;-80
2022/07/29 09:54:28;;;;;;;7.50;3.97;;;36.50;43.70;;;;;;5090786;28;20028;-76
2022/07/29 09:56:55;;;;;;;7.65;4.32;;;36.60;43.80;;;;;;5089953;28;20067;-84
2022/07/29 09:59:24;;;;;;;5.53;4.05;;;36.60;44.70;;;;;;5091532;28;20023;-77
2022/07/29 10:01:49;;;;;;;7.18;4.28;;;37.00;44.50;;;;;;5091172;28;20020;-76
2022/07/29 10:04:16;;;;;;;7.13;4.50;;;37.10;44.40;;;;;;5091086;28;20027;-81
2022/07/29 10:07:04;;;;;;;5.78;4.00;;;37.00;44.00;;;;;;5089879;28;20039;-79
2022/07/29 10:09:32;;;;;;;4.97;4.07;;;37.00;44.40;;;;;;5090083;28;20713;-78
2022/07/29 10:12:07;;;;;;;5.00;4.05;;;37.30;44.20;;;;;;5089788;28;20044;-79
2022/07/29 10:14:33;;;;;;;6.75;4.47;;;37.40;43.10;;;;;;5090153;28;20086;-78
2022/07/29 10:17:03;;;;;;;6.85;4.00;;;37.20;43.30;;;;;;5090715;28;20035;-86
2022/07/29 10:19:30;;;;;;;;;;;37.40;43.00;;;;;;5090645;28;20044;-78
2022/07/29 10:22:00;;;;;;;6.93;3.83;;;37.30;42.80;;;;;;5090275;28;19915;-88
2022/07/29 10:24:28;;;;;;;7.15;3.70;;;37.70;43.90;;;;;;5090608;28;20031;-78
2022/07/29 10:26:59;;;;;;;8.07;3.50;;;38.00;42.30;;;;;;5090053;28;20423;-78
2022/07/29 10:29:26;;;;;;;7.97;4.07;;;38.20;41.50;;;;;;5090468;28;20032;-75
2022/07/29 10:32:25;;;;;;;7.75;3.83;;;38.60;41.80;;;;;;5090769;28;20035;-74
2022/07/29 10:35:12;;;;;;;7.65;3.85;;;38.80;41.10;;;;;;5089761;28;20383;-77
2022/07/29 10:37:59;;;;;;;5.20;3.90;;;38.50;41.00;;;;;;5089792;28;20048;-79
2022/07/29 10:43:35;;;;;;;5.03;3.90;;;38.30;42.00;;;;;;5089546;28;20035;-79
2022/07/29 10:46:02;;;;;;;11.35;3.90;;;38.30;41.80;;;;;;5092483;28;20020;-78
2022/07/29 10:48:29;;;;;;;7.50;3.60;;;38.10;42.60;;;;;;5094142;28;20600;-80
2022/07/29 10:51:03;;;;;;;7.57;3.80;;;38.10;42.10;;;;;;5077034;28;20076;-76
2022/07/29 10:53:52;;;;;;;8.45;3.97;;;38.10;41.80;;;;;;5094405;28;20032;-79
2022/07/29 10:56:24;;;;;;;6.85;3.58;;;38.10;41.80;;;;;;5093468;28;20075;-87
2022/07/29 10:59:18;;;;;;;5.85;3.65;;;37.90;41.40;;;;;;5076150;28;20347;-80
2022/07/29 11:01:44;;;;;;;7.28;3.85;;;37.90;40.40;;;;;;5095201;28;20024;-80
2022/07/29 11:04:10;;;;;;;6.72;4.13;;;37.90;41.20;;;;;;5093736;28;20157;-76
2022/07/29 11:07:01;;;;;;;5.95;3.80;;;37.90;40.60;;;;;;5075340;28;20024;-77
2022/07/29 11:09:29;;;;;;;8.15;3.75;;;37.70;41.60;;;;;;5092809;28;20542;-78
2022/07/29 11:11:55;;;;;;;6.20;3.60;;;37.90;41.80;;;;;;5076828;28;20111;-78
2022/07/29 11:14:52;;;;;;;6.43;3.80;;;38.30;41.10;;;;;;5093369;28;20103;-79
2022/07/29 11:17:18;;;;;;;8.07;3.80;;;38.70;41.50;;;;;;5077949;28;20032;-75
2022/07/29 11:19:44;;;;;;;7.28;3.78;;;38.50;40.50;;;;;;5073232;28;20103;-76
2022/07/29 11:22:33;;;;;;;8.07;3.78;;;37.80;41.90;;;;;;5073369;28;20036;-83
2022/07/29 11:25:19;;;;;;;5.93;3.83;;;38.20;41.80;;;;;;5086922;28;20024;-81
2022/07/29 11:27:45;;;;;;;5.82;3.63;;;38.60;41.00;;;;;;5075861;28;20061;-78
2022/07/29 11:30:11;;;;;;;6.05;3.65;;;39.00;40.50;;;;;;5095034;28;20020;-79
2022/07/29 11:32:39;;;;;;;6.97;3.20;;;39.00;40.40;;;;;;5094024;28;20020;-76
2022/07/29 11:35:24;;;;;;;5.28;3.60;;;38.50;40.30;;;;;;5093014;28;20020;-79
2022/07/29 11:38:20;;;;;;;10.85;3.50;;;37.80;40.30;;;;;;5068393;28;20376;-78
2022/07/29 11:41:25;;;;;;;5.53;3.70;;;37.20;40.90;;;;;;5074032;28;20076;-78
2022/07/29 11:43:57;;;;;;;5.15;3.42;;;36.70;41.40;;;;;;5075397;28;20028;-81
2022/07/29 11:46:51;;;;;;;4.78;3.58;;;37.20;41.10;;;;;;5075915;28;20051;-78
2022/07/29 11:49:24;;;;;;;5.40;3.40;;;37.30;41.00;;;;;;5075243;28;20021;-82
2022/07/29 11:51:52;;;;;;;9.52;3.72;;;36.90;40.50;;;;;;5075386;28;20017;-81
2022/07/29 11:54:31;;;;;;;6.68;3.67;;;36.90;41.80;;;;;;5075555;28;20431;-78
2022/07/29 11:56:58;;;;;;;7.10;3.88;;;36.90;41.30;;;;;;5074348;28;20060;-79
2022/07/29 11:59:25;;;;;;;6.18;3.83;;;37.10;41.60;;;;;;5057127;28;20608;-79
2022/07/29 12:01:58;;;;;;;5.65;3.42;;;37.00;41.70;;;;;;5072853;28;20024;-78
2022/07/29 12:04:26;;;;;;;6.32;4.03;;;37.10;41.40;;;;;;5073590;28;20471;-78
2022/07/29 12:06:52;;;;;;;7.25;3.60;;;37.10;41.30;;;;;;5073947;28;20724;-79
2022/07/29 12:09:19;;;;;;;4.60;3.55;;;37.10;41.60;;;;;;5073501;28;20093;-79
2022/07/29 12:11:46;;;;;;;5.20;3.72;;;37.30;41.00;;;;;;5056633;28;20479;-79
2022/07/29 12:14:28;;;;;;;7.68;3.80;;;37.40;41.60;;;;;;5074694;28;20028;-81
2022/07/29 12:16:54;;;;;;;4.63;3.55;;;37.40;41.30;;;;;;5074958;28;20036;-81
2022/07/29 12:19:19;;;;;;;8.52;3.80;;;37.50;41.20;;;;;;5075368;28;20181;-79
2022/07/29 12:21:47;;;;;;;6.82;3.72;;;37.80;41.20;;;;;;5075397;28;20475;-79
2022/07/29 12:24:12;;;;;;;7.20;3.60;;;38.10;40.90;;;;;;5075041;28;20100;-79
2022/07/29 12:26:52;;;;;;;5.13;3.40;;;38.00;40.80;;;;;;5075021;28;20088;-81
2022/07/29 12:29:19;;;;;;;5.00;3.53;;;37.70;41.50;;;;;;5075115;28;20019;-80
2022/07/29 12:31:46;;;;;;;7.32;3.85;;;37.80;41.50;;;;;;5056765;28;20036;-82
2022/07/29 12:34:15;;;;;;;7.22;3.72;;;38.10;41.80;;;;;;5056979;28;20021;-79
2022/07/29 12:36:42;;;;;;;5.82;3.67;;;37.90;42.10;;;;;;5087259;28;20059;-80
2022/07/29 12:39:09;;;;;;;4.45;3.50;;;38.00;41.20;;;;;;5094440;28;20032;-78
2022/07/29 12:41:36;;;;;;;6.47;3.80;;;37.70;40.70;;;;;;5095041;28;20020;-80
2022/07/29 12:44:01;;;;;;;8.68;3.83;;;37.40;40.50;;;;;;5076959;28;20115;-79
2022/07/29 12:46:28;;;;;;;8.15;4.10;;;37.50;41.00;;;;;;5095013;28;20098;-80
2022/07/29 12:48:54;;;;;;;9.60;3.50;;;37.50;40.80;;;;;;5094661;28;20118;-80
2022/07/29 12:51:39;;;;;;;7.50;3.80;;;37.70;41.50;;;;;;5094572;28;20028;-80
2022/07/29 12:54:07;;;;;;;9.65;3.97;;;37.90;41.20;;;;;;5094597;28;20072;-79
2022/07/29 12:56:33;;;;;;;6.18;3.50;;;38.10;41.50;;;;;;5094844;28;20471;-80
2022/07/29 12:58:59;;;;;;;4.53;3.50;;;38.30;40.50;;;;;;5095090;28;20024;-81
2022/07/29 13:01:27;;;;;;;8.07;3.60;;;38.70;40.30;;;;;;5095096;28;20016;-79
2022/07/29 13:03:54;;;;;;;5.43;3.60;;;38.60;40.70;;;;;;5094858;28;20027;-80